Time;durP1;ratioP1;P1;durP2;ratioP2;P2;SDS_P1;SDS_P2;PMS_P1;PMS_P2;Temp;Humidity;BMP_temperature;BMP_pressure;BME280_temperature;BME280_humidity;BME280_pressure;Samples;Min_cycle;Max_cycle;Signal;HPM_P1;HPM_P2
2023/04/25 11:09:13;;;;;;;3.22;2.47;;;;;;;6.07;94.29;96212.31;2084647;28;20559;-59
2023/04/25 11:11:23;;;;;;;2.72;1.60;;;;;;;6.23;93.03;96223.03;2085039;28;20564;-59
2023/04/25 11:13:31;;;;;;;2.80;2.05;;;;;;;6.44;93.26;96213.66;2083835;28;20557;-59
2023/04/25 11:15:37;;;;;;;2.65;2.03;;;;;;;6.42;92.96;96228.41;2086532;28;20573;-59
2023/04/25 11:17:46;;;;;;;2.90;1.85;;;;;;;6.37;92.74;96206.09;2100409;27;20874;-59
2023/04/25 11:19:50;;;;;;;2.65;2.00;;;;;;;6.52;92.02;96228.03;2084936;28;20560;-59
2023/04/25 11:40:49;;;;;;;9.95;4.90;;;;;;;5.81;92.55;96225.19;2083959;28;21068;-59
2023/04/25 11:42:54;;;;;;;14.35;5.05;;;;;;;6.00;91.55;96242.78;2091507;28;20547;-59
2023/04/25 11:45:06;;;;;;;16.33;5.75;;;;;;;5.99;91.45;96246.25;2090076;28;20931;-59
2023/04/25 11:47:10;;;;;;;10.68;5.00;;;;;;;5.88;91.53;96244.00;2083507;28;20560;-59
2023/04/25 11:49:20;;;;;;;12.35;5.70;;;;;;;6.17;92.86;96239.63;2082622;28;20572;-58
2023/04/25 11:51:30;;;;;;;8.10;4.90;;;;;;;6.03;87.34;96248.72;2081825;28;20578;-58
2023/04/25 11:53:41;;;;;;;8.05;4.97;;;;;;;5.97;88.80;96232.50;2082735;28;20562;-59
2023/04/25 11:55:47;;;;;;;17.13;6.07;;;;;;;6.07;90.71;96248.59;2083057;28;20561;-59
2023/04/25 11:58:01;;;;;;;9.88;4.78;;;;;;;5.97;88.81;96254.06;2084519;28;20585;-59
2023/04/25 11:59:05;;;;;;;13.10;5.20;;;;;;;6.04;88.89;96255.59;2084041;28;20220;-59
2023/04/25 12:00:17;;;;;;;7.70;5.30;;;;;;;6.02;89.37;96252.19;2089060;28;20206;-59
2023/04/25 12:01:30;;;;;;;10.73;6.05;;;;;;;5.92;88.10;96252.50;2073004;28;20238;-58
2023/04/25 12:02:35;;;;;;;9.98;5.65;;;;;;;5.84;87.84;96252.75;2071449;28;20695;-59
2023/04/25 12:03:45;;;;;;;8.10;5.32;;;;;;;5.77;88.84;96244.34;2070260;28;20194;-59
2023/04/25 12:04:47;;;;;;;10.60;6.57;;;;;;;5.83;89.00;96257.09;2068895;28;20205;-59
2023/04/25 12:05:49;;;;;;;10.77;6.00;;;;;;;6.06;90.08;96252.94;2070233;28;20205;-59
2023/04/25 12:06:53;;;;;;;9.13;6.25;;;;;;;6.15;91.31;96252.63;2070606;28;20205;-60
2023/04/25 12:07:55;;;;;;;9.07;6.25;;;;;;;6.19;90.96;96259.41;2069640;28;20219;-60
2023/04/25 12:09:04;;;;;;;9.32;6.10;;;;;;;6.30;92.04;96258.22;2069670;28;20198;-60
2023/04/25 12:10:10;;;;;;;8.55;6.35;;;;;;;6.39;93.19;96260.50;2069843;28;20236;-60
2023/04/25 12:11:21;;;;;;;9.23;6.25;;;;;;;6.37;90.00;96255.38;2068324;28;20224;-62
2023/04/25 12:12:27;;;;;;;16.83;9.85;;;;;;;6.11;88.16;96260.59;2070796;28;20198;-61
2023/04/25 12:13:31;;;;;;;48.25;23.98;;;;;;;6.05;87.58;96259.03;2073316;28;20600;-61
2023/04/25 12:14:35;;;;;;;8.45;5.25;;;;;;;6.07;86.61;96256.38;2072356;28;20249;-61
2023/04/25 12:15:40;;;;;;;7.82;4.50;;;;;;;6.08;87.77;96250.31;2070158;28;20196;-61
2023/04/25 12:16:44;;;;;;;8.27;4.43;;;;;;;6.25;88.88;96260.09;2071507;28;20221;-61
2023/04/25 12:17:47;;;;;;;9.02;5.03;;;;;;;6.18;88.46;96252.56;2067630;28;20207;-61
2023/04/25 12:18:52;;;;;;;8.10;4.40;;;;;;;6.33;87.76;96265.88;2069029;28;20237;-61
2023/04/25 12:19:54;;;;;;;10.77;5.35;;;;;;;6.35;89.48;96254.56;2068642;28;20280;-61
2023/04/25 12:20:55;;;;;;;6.03;4.45;;;;;;;6.66;88.45;96260.44;2067144;28;20230;-62
2023/04/25 12:21:57;;;;;;;6.28;4.35;;;;;;;6.53;86.50;96262.63;2069428;28;20203;-61
2023/04/25 12:23:00;;;;;;;8.60;4.78;;;;;;;6.60;87.37;96261.50;2073408;28;20839;-61
2023/04/25 12:24:14;;;;;;;6.80;4.95;;;;;;;6.59;86.32;96267.59;2070976;28;20238;-62
2023/04/25 12:25:38;;;;;;;5.10;3.97;;;;;;;6.56;87.01;96261.66;2069554;28;20193;-61
2023/04/25 12:27:01;;;;;;;5.53;3.67;;;;;;;6.43;86.86;96261.25;2069419;28;20230;-62
2023/04/25 12:28:19;;;;;;;4.97;3.50;;;;;;;6.64;86.87;96257.03;2079013;28;20197;-61
2023/04/25 12:29:23;;;;;;;7.07;3.92;;;;;;;6.82;87.60;96269.38;2075783;28;20629;-61
2023/04/25 12:30:28;;;;;;;7.03;3.45;;;;;;;6.81;87.30;96259.06;2069840;28;20230;-61
2023/04/25 12:31:30;;;;;;;4.65;3.60;;;;;;;6.94;87.37;96268.06;2071820;28;20232;-62
2023/04/25 12:32:32;;;;;;;5.07;3.50;;;;;;;7.09;87.04;96268.44;2072752;28;20288;-61
2023/04/25 12:33:35;;;;;;;9.88;4.95;;;;;;;7.09;86.24;96269.28;2072653;28;20650;-61
2023/04/25 12:34:37;;;;;;;6.32;3.70;;;;;;;7.17;86.30;96267.25;2070292;28;20202;-62
2023/04/25 12:35:38;;;;;;;7.70;4.22;;;;;;;7.15;84.05;96268.22;2068468;28;20206;-61
2023/04/25 12:36:42;;;;;;;9.07;5.43;;;;;;;7.22;85.70;96255.84;2070118;28;20316;-63
2023/04/25 12:37:44;;;;;;;7.63;4.97;;;;;;;7.34;86.01;96276.16;2071514;28;20214;-62
2023/04/25 12:38:45;;;;;;;9.15;5.25;;;;;;;7.55;85.89;96271.88;2073391;28;20228;-62
2023/04/25 12:39:46;;;;;;;8.60;5.30;;;;;;;7.63;84.60;96272.44;2080266;28;20195;-63
2023/04/25 12:40:48;;;;;;;6.20;4.30;;;;;;;7.65;82.46;96280.19;2078860;28;20197;-63
2023/04/25 12:41:50;;;;;;;11.27;5.55;;;;;;;7.70;83.89;96275.66;2069284;28;20218;-63
2023/04/25 12:42:52;;;;;;;8.68;4.50;;;;;;;7.80;84.18;96269.19;2080009;28;20193;-63
2023/04/25 12:43:53;;;;;;;8.68;5.93;;;;;;;7.87;84.67;96274.13;2075554;28;20602;-63
2023/04/25 12:44:55;;;;;;;7.32;4.80;;;;;;;7.74;84.25;96278.97;2072865;28;20202;-63
2023/04/25 12:45:56;;;;;;;17.90;4.57;;;;;;;7.36;84.44;96263.94;2070584;28;20205;-63
2023/04/25 12:46:59;;;;;;;10.23;5.30;;;;;;;7.37;84.94;96272.59;2071172;28;20597;-61
2023/04/25 12:48:01;;;;;;;11.45;4.80;;;;;;;7.43;86.54;96270.63;2073184;28;20194;-60
2023/04/25 12:49:07;;;;;;;7.78;5.00;;;;;;;7.50;86.72;96276.41;2070611;28;20203;-62
2023/04/25 12:50:19;;;;;;;6.43;3.90;;;;;;;7.34;85.28;96279.59;2070012;28;20552;-61
2023/04/25 12:51:24;;;;;;;7.43;4.55;;;;;;;7.35;86.64;96270.03;2072691;28;20691;-61
2023/04/25 12:52:26;;;;;;;5.82;4.22;;;;;;;7.11;86.28;96270.06;2072839;28;20212;-61
2023/04/25 12:53:27;;;;;;;6.55;4.63;;;;;;;7.08;86.06;96266.75;2071638;28;20198;-62
2023/04/25 12:54:28;;;;;;;9.10;5.18;;;;;;;7.19;87.27;96275.81;2072476;28;20193;-61
2023/04/25 12:55:30;;;;;;;10.07;6.00;;;;;;;7.31;87.13;96273.66;2068877;28;20229;-63
2023/04/25 12:56:32;;;;;;;9.93;6.18;;;;;;;7.57;87.92;96280.47;2065658;28;20242;-62
2023/04/25 12:57:33;;;;;;;9.52;5.10;;;;;;;7.50;85.55;96281.59;2067275;28;20244;-62
2023/04/25 12:58:35;;;;;;;8.85;6.40;;;;;;;7.77;85.33;96264.13;2069464;28;20211;-62
2023/04/25 12:59:36;;;;;;;11.10;6.93;;;;;;;7.81;85.04;96285.63;2065183;28;20208;-62
2023/04/25 13:00:38;;;;;;;9.35;6.07;;;;;;;7.67;86.17;96266.22;2071664;28;20214;-62
2023/04/25 13:01:40;;;;;;;8.93;5.20;;;;;;;7.73;85.51;96277.28;2070005;28;20225;-62
2023/04/25 13:02:41;;;;;;;9.27;5.18;;;;;;;7.83;85.48;96282.06;2069375;28;20198;-62
2023/04/25 13:03:43;;;;;;;7.13;4.78;;;;;;;7.64;84.72;96274.16;2074187;28;20552;-62
2023/04/25 13:04:45;;;;;;;7.20;4.95;;;;;;;7.66;85.06;96285.31;2071351;28;20842;-62
2023/04/25 13:05:47;;;;;;;9.45;4.78;;;;;;;7.41;84.53;96288.00;2071784;28;20202;-62
2023/04/25 13:06:48;;;;;;;10.00;5.18;;;;;;;7.27;84.51;96288.50;2070751;28;20202;-62
2023/04/25 13:07:50;;;;;;;11.63;4.60;;;;;;;7.26;85.39;96296.38;2077664;28;20840;-62
2023/04/25 13:08:51;;;;;;;10.05;4.35;;;;;;;7.14;84.75;96289.88;2072376;28;20197;-62
2023/04/25 13:09:53;;;;;;;7.97;4.65;;;;;;;7.28;85.89;96284.19;2061587;28;20231;-61
2023/04/25 13:10:55;;;;;;;10.30;6.10;;;;;;;7.19;86.17;96291.41;2061832;28;20579;-62
2023/04/25 13:11:57;;;;;;;9.00;6.00;;;;;;;7.35;87.91;96285.63;2069545;28;20205;-61
2023/04/25 13:13:00;;;;;;;8.93;5.18;;;;;;;7.57;86.24;96287.41;2065884;28;20205;-62
2023/04/25 13:14:02;;;;;;;10.48;6.40;;;;;;;7.57;85.57;96297.81;2067245;28;20225;-62
2023/04/25 13:15:04;;;;;;;9.60;5.15;;;;;;;7.44;84.79;96287.91;2063445;28;20206;-61
2023/04/25 13:16:07;;;;;;;8.73;5.80;;;;;;;7.48;84.78;96281.69;2063402;28;20355;-62
2023/04/25 13:17:09;;;;;;;7.80;5.93;;;;;;;7.55;85.23;96292.66;2066573;28;20287;-61
2023/04/25 13:18:10;;;;;;;9.05;5.25;;;;;;;7.55;85.11;96289.25;2064040;28;20222;-62
2023/04/25 13:19:12;;;;;;;8.00;5.35;;;;;;;7.50;84.74;96289.41;2065198;28;20195;-62
2023/04/25 13:20:15;;;;;;;9.63;5.45;;;;;;;7.57;84.89;96290.88;2066227;28;20203;-62
2023/04/25 13:21:17;;;;;;;8.70;5.60;;;;;;;7.41;85.42;96294.97;2069804;28;20610;-61
2023/04/25 13:22:19;;;;;;;6.95;5.38;;;;;;;7.26;84.62;96289.44;2067145;28;20206;-62
2023/04/25 13:23:22;;;;;;;9.70;5.60;;;;;;;7.25;84.56;96290.34;2065972;28;20210;-62
2023/04/25 13:24:23;;;;;;;9.95;6.65;;;;;;;7.30;85.26;96296.22;2071819;28;20594;-62
2023/04/25 13:25:25;;;;;;;10.82;6.70;;;;;;;7.43;85.95;96291.41;2065531;28;20664;-62
2023/04/25 13:26:26;;;;;;;11.52;6.68;;;;;;;7.67;87.37;96296.56;2064277;28;20230;-62
2023/04/25 13:27:28;;;;;;;7.30;5.47;;;;;;;7.72;85.66;96292.03;2064707;28;20210;-62
2023/04/25 13:28:30;;;;;;;16.27;6.57;;;;;;;7.77;84.91;96304.84;2067890;28;20408;-62
2023/04/25 13:29:34;;;;;;;8.50;5.90;;;;;;;7.85;83.99;96303.63;2064205;28;20190;-62
2023/04/25 13:30:36;;;;;;;7.68;5.85;;;;;;;8.04;84.64;96297.72;2067062;28;20273;-62
2023/04/25 13:31:38;;;;;;;11.32;5.93;;;;;;;8.31;84.68;96298.34;2060719;28;20464;-62
2023/04/25 13:32:39;;;;;;;7.45;5.38;;;;;;;8.46;83.24;96290.84;2063526;28;20199;-63
2023/04/25 13:33:41;;;;;;;8.55;5.05;;;;;;;8.36;81.24;96295.56;2069398;28;20197;-62
2023/04/25 13:34:42;;;;;;;12.82;6.35;;;;;;;8.31;81.03;96292.28;2068821;28;20198;-62
2023/04/25 13:35:46;;;;;;;6.68;4.90;;;;;;;8.46;82.21;96294.28;2065805;28;20210;-63
2023/04/25 13:36:48;;;;;;;10.38;5.95;;;;;;;8.72;82.29;96296.69;2067069;28;20252;-62
2023/04/25 13:37:49;;;;;;;11.40;6.18;;;;;;;9.44;81.21;96292.66;2067454;28;20360;-62
2023/04/25 13:38:51;;;;;;;8.07;6.18;;;;;;;9.19;78.06;96290.31;2066491;28;20256;-63
2023/04/25 13:39:53;;;;;;;11.25;6.80;;;;;;;9.18;82.27;96291.22;2063947;28;20210;-62
2023/04/25 13:40:55;;;;;;;10.00;5.90;;;;;;;9.10;81.76;96281.16;2064186;28;20260;-62
2023/04/25 13:41:57;;;;;;;9.93;5.28;;;;;;;8.96;81.59;96287.84;2063438;28;20237;-63
2023/04/25 13:42:59;;;;;;;10.25;5.85;;;;;;;8.81;81.29;96288.47;2066561;28;20577;-63
2023/04/25 13:44:00;;;;;;;7.65;5.00;;;;;;;8.70;80.34;96294.16;2066385;28;20202;-62
2023/04/25 13:45:02;;;;;;;11.13;5.57;;;;;;;8.95;81.64;96286.16;2066095;28;20198;-62
2023/04/25 13:46:04;;;;;;;9.38;5.70;;;;;;;8.91;81.32;96296.75;2067287;28;20220;-62
2023/04/25 13:47:06;;;;;;;8.10;4.82;;;;;;;8.68;81.00;96293.38;2065635;28;20265;-62
2023/04/25 13:48:08;;;;;;;13.75;5.93;;;;;;;8.51;80.68;96291.50;2062812;28;20282;-62
2023/04/25 13:49:10;;;;;;;7.95;5.15;;;;;;;8.44;82.45;96279.63;2064243;28;20201;-62
2023/04/25 13:50:15;;;;;;;9.15;4.90;;;;;;;8.50;81.12;96295.00;2064104;28;20285;-62
2023/04/25 13:51:17;;;;;;;8.40;4.82;;;;;;;8.52;81.41;96298.41;2063862;28;20636;-62
2023/04/25 13:52:18;;;;;;;10.50;5.28;;;;;;;8.85;82.06;96307.44;2064695;28;20218;-62
2023/04/25 13:53:20;;;;;;;12.82;5.13;;;;;;;8.79;81.23;96305.94;2065415;28;20203;-63
2023/04/25 13:54:22;;;;;;;7.38;4.95;;;;;;;8.98;81.29;96313.81;2066723;28;20195;-62
2023/04/25 13:55:24;;;;;;;8.13;4.55;;;;;;;8.79;80.74;96306.78;2065919;28;20618;-63
2023/04/25 13:56:26;;;;;;;6.22;4.40;;;;;;;8.56;79.51;96310.38;2067733;28;20222;-63
2023/04/25 13:57:27;;;;;;;9.35;4.85;;;;;;;8.65;81.63;96301.34;2063232;28;20270;-61
2023/04/25 13:58:28;;;;;;;6.82;4.80;;;;;;;8.86;82.16;96304.75;2067250;28;20254;-61
2023/04/25 13:59:30;;;;;;;9.93;4.93;;;;;;;9.08;80.82;96311.66;2063129;28;20205;-61
2023/04/25 14:00:32;;;;;;;6.82;4.15;;;;;;;9.04;79.10;96299.66;2066172;28;20231;-63
2023/04/25 14:01:35;;;;;;;6.95;4.60;;;;;;;9.13;79.43;96297.50;2064369;28;20233;-63
2023/04/25 14:02:37;;;;;;;8.52;4.82;;;;;;;9.17;78.40;96303.44;2061308;28;20195;-62
2023/04/25 14:03:38;;;;;;;6.97;4.63;;;;;;;9.55;78.58;96294.75;2064690;28;20214;-62
2023/04/25 14:04:41;;;;;;;7.93;5.05;;;;;;;9.73;78.40;96295.69;2066704;28;20256;-62
2023/04/25 14:05:42;;;;;;;9.82;5.10;;;;;;;9.57;76.91;96301.63;2062580;28;20199;-62
2023/04/25 14:06:44;;;;;;;7.63;4.60;;;;;;;9.47;78.04;96297.72;2062308;28;20234;-63
2023/04/25 14:07:46;;;;;;;8.25;3.75;;;;;;;9.32;78.40;96284.50;2065451;28;20206;-62
2023/04/25 14:08:48;;;;;;;4.97;3.67;;;;;;;9.60;77.10;96303.25;2060400;28;20728;-63
2023/04/25 14:09:49;;;;;;;7.70;3.95;;;;;;;8.99;76.87;96299.88;2064154;28;20223;-62
2023/04/25 14:10:50;;;;;;;8.35;4.60;;;;;;;9.01;77.00;96303.25;2063991;28;20203;-63
2023/04/25 14:11:52;;;;;;;7.13;4.30;;;;;;;9.14;78.28;96300.94;2061224;28;20786;-62
2023/04/25 14:12:53;;;;;;;7.72;4.65;;;;;;;9.03;77.08;96298.81;2065409;28;20201;-62
2023/04/25 14:13:55;;;;;;;6.80;4.75;;;;;;;8.96;77.88;96294.78;2066665;28;20198;-62
2023/04/25 14:14:56;;;;;;;7.22;4.07;;;;;;;8.85;77.09;96300.47;2067601;28;20352;-62
2023/04/25 14:15:58;;;;;;;8.73;4.00;;;;;;;8.73;77.96;96301.84;2064900;28;20383;-62
2023/04/25 14:16:59;;;;;;;8.77;4.35;;;;;;;8.69;77.30;96308.09;2062351;28;20199;-62
2023/04/25 14:18:02;;;;;;;6.88;4.20;;;;;;;8.40;76.57;96306.69;2064582;28;20701;-62
2023/04/25 14:19:03;;;;;;;8.18;3.83;;;;;;;8.29;77.41;96305.38;2067017;28;20206;-69
2023/04/25 14:20:05;;;;;;;7.15;4.57;;;;;;;8.45;77.90;96307.34;2067276;28;20194;-70
2023/04/25 14:21:07;;;;;;;9.45;4.50;;;;;;;8.52;77.71;96303.63;2062545;28;20254;-68
2023/04/25 14:22:09;;;;;;;5.35;3.90;;;;;;;8.62;77.72;96310.13;2064062;28;20554;-70
2023/04/25 14:23:11;;;;;;;6.00;3.90;;;;;;;8.86;77.46;96304.75;2062829;28;20210;-70
2023/04/25 14:24:13;;;;;;;9.18;4.10;;;;;;;9.66;76.87;96305.53;2062684;28;20259;-70
2023/04/25 14:25:15;;;;;;;6.35;3.50;;;;;;;9.60;75.29;96301.47;2064036;28;20212;-70
2023/04/25 14:26:16;;;;;;;5.28;3.70;;;;;;;9.67;75.11;96298.59;2062969;28;20226;-70
2023/04/25 14:27:18;;;;;;;6.25;3.55;;;;;;;9.74;75.43;96300.84;2064821;28;20201;-70
2023/04/25 14:28:20;;;;;;;6.35;2.90;;;;;;;9.52;73.72;96303.56;2065098;28;20203;-70
2023/04/25 14:29:21;;;;;;;4.80;3.63;;;;;;;9.33;73.34;96303.56;2068374;28;20533;-70
2023/04/25 14:30:23;;;;;;;4.65;2.78;;;;;;;9.10;74.19;96296.78;2061529;28;20202;-70
2023/04/25 14:31:24;;;;;;;5.68;2.90;;;;;;;9.19;74.27;96298.97;2065568;28;20560;-70
2023/04/25 14:32:26;;;;;;;6.78;3.03;;;;;;;9.43;73.31;96306.63;2065898;28;20331;-70
2023/04/25 14:33:27;;;;;;;5.03;3.13;;;;;;;9.68;73.88;96298.50;2063019;28;20580;-70
2023/04/25 14:34:29;;;;;;;4.82;3.00;;;;;;;9.90;73.65;96310.53;2062642;28;20198;-70
2023/04/25 14:35:30;;;;;;;6.50;3.22;;;;;;;9.90;73.96;96306.19;2064293;28;20207;-70
2023/04/25 14:36:32;;;;;;;6.07;3.22;;;;;;;9.90;73.68;96313.16;2063789;28;20226;-70
2023/04/25 14:37:34;;;;;;;5.93;3.45;;;;;;;10.71;72.21;96308.34;2063901;28;20203;-70
2023/04/25 14:38:35;;;;;;;5.20;2.88;;;;;;;11.29;70.14;96311.50;2066452;28;20213;-70
2023/04/25 14:39:37;;;;;;;4.20;3.20;;;;;;;11.19;68.82;96303.28;2063757;28;20206;-70
2023/04/25 14:40:39;;;;;;;4.75;2.70;;;;;;;10.79;69.31;96305.34;2061831;28;20754;-69
2023/04/25 14:41:40;;;;;;;6.68;3.10;;;;;;;10.61;69.82;96302.78;2063210;28;20714;-70
2023/04/25 14:42:42;;;;;;;6.68;2.42;;;;;;;10.39;70.29;96304.75;2063915;28;20210;-70
2023/04/25 14:43:44;;;;;;;8.00;3.40;;;;;;;10.44;70.74;96298.38;2061645;28;20519;-70
2023/04/25 14:44:46;;;;;;;6.13;3.20;;;;;;;10.58;70.28;96302.06;2063175;28;20209;-70
2023/04/25 14:45:47;;;;;;;3.75;2.20;;;;;;;10.23;69.87;96304.63;2064429;28;20195;-70
2023/04/25 14:46:51;;;;;;;3.47;2.30;;;;;;;10.54;69.81;96305.75;2065994;28;20200;-70
2023/04/25 14:47:53;;;;;;;3.70;2.42;;;;;;;11.21;69.39;96303.22;2064901;28;20235;-70
2023/04/25 14:48:55;;;;;;;8.73;3.20;;;;;;;11.67;67.39;96300.75;2064912;28;20201;-70
2023/04/25 14:49:57;;;;;;;9.20;2.88;;;;;;;12.37;66.15;96305.63;2065319;28;20223;-70
2023/04/25 14:51:00;;;;;;;5.00;2.80;;;;;;;12.00;64.27;96312.06;2068799;28;20295;-70
2023/04/25 14:52:01;;;;;;;8.55;2.15;;;;;;;11.68;63.45;96307.69;2062231;28;20202;-70
2023/04/25 14:53:03;;;;;;;4.13;2.60;;;;;;;10.94;63.82;96299.38;2063973;28;20204;-64
2023/04/25 14:54:04;;;;;;;5.45;3.17;;;;;;;10.79;65.57;96300.13;2066735;28;20218;-64
2023/04/25 14:55:07;;;;;;;6.00;3.42;;;;;;;10.99;67.28;96300.88;2069210;28;20201;-64
2023/04/25 14:56:08;;;;;;;5.25;2.92;;;;;;;11.22;67.22;96297.06;2064273;28;20225;-65
2023/04/25 14:57:10;;;;;;;5.45;2.55;;;;;;;11.60;67.66;96302.00;2066145;28;20211;-64
2023/04/25 14:58:11;;;;;;;6.43;2.85;;;;;;;11.46;68.64;96310.59;2066227;28;20548;-64
2023/04/25 14:59:13;;;;;;;6.25;2.05;;;;;;;11.17;65.73;96307.75;2063214;28;20268;-64
2023/04/25 15:00:16;;;;;;;5.30;3.17;;;;;;;11.07;67.86;96310.03;2062194;28;20203;-64
2023/04/25 15:01:20;;;;;;;10.48;3.20;;;;;;;10.85;69.17;96304.22;2063700;28;20752;-64
2023/04/25 15:02:22;;;;;;;6.47;3.30;;;;;;;10.91;68.76;96299.50;2067431;28;20210;-65
2023/04/25 15:03:23;;;;;;;7.50;2.95;;;;;;;11.00;68.00;96306.03;2064743;28;20210;-64
2023/04/25 15:04:25;;;;;;;5.60;3.15;;;;;;;11.08;68.53;96298.66;2063788;28;20206;-64
2023/04/25 15:05:27;;;;;;;6.30;3.45;;;;;;;11.49;67.81;96300.00;2064343;28;20243;-64
2023/04/25 15:06:30;;;;;;;4.85;3.33;;;;;;;12.23;66.61;96289.88;2064777;28;20229;-64
2023/04/25 15:07:31;;;;;;;3.90;2.58;;;;;;;11.76;63.53;96307.25;2063786;28;20658;-64
2023/04/25 15:08:33;;;;;;;6.35;3.00;;;;;;;11.79;65.67;96301.84;2062888;28;20237;-65
2023/04/25 15:09:35;;;;;;;9.10;3.10;;;;;;;12.15;64.31;96305.16;2065608;28;20711;-64
2023/04/25 15:10:36;;;;;;;6.82;3.10;;;;;;;11.91;65.51;96302.97;2064030;28;20626;-65
2023/04/25 15:11:38;;;;;;;8.02;3.00;;;;;;;10.67;66.08;96304.22;2066428;28;20222;-64
2023/04/25 15:12:40;;;;;;;10.23;3.78;;;;;;;10.74;65.72;96305.59;2066460;28;20529;-64
2023/04/25 15:13:41;;;;;;;8.15;3.15;;;;;;;10.94;65.57;96304.59;2064001;28;20241;-64
2023/04/25 15:14:43;;;;;;;6.50;2.70;;;;;;;11.71;65.25;96310.13;2063958;28;20779;-64
2023/04/25 15:15:44;;;;;;;3.65;2.50;;;;;;;12.39;66.30;96310.75;2065689;28;20232;-64
2023/04/25 15:16:46;;;;;;;7.50;2.95;;;;;;;12.64;65.47;96309.34;2059369;28;20254;-65
2023/04/25 15:17:47;;;;;;;15.25;3.72;;;;;;;12.28;65.92;96310.53;2064437;28;20198;-64
2023/04/25 15:18:49;;;;;;;5.25;2.97;;;;;;;12.18;68.16;96302.38;2060787;28;20329;-65
2023/04/25 15:19:50;;;;;;;11.40;3.50;;;;;;;11.31;66.77;96298.34;2058689;28;20215;-64
2023/04/25 15:20:53;;;;;;;7.50;3.85;;;;;;;11.10;66.89;96309.00;2061943;28;20238;-64
2023/04/25 15:21:55;;;;;;;10.73;3.72;;;;;;;10.92;67.32;96305.59;2066105;28;20198;-65
2023/04/25 15:22:56;;;;;;;8.10;3.60;;;;;;;11.00;67.14;96306.03;2066625;28;20210;-64
2023/04/25 15:23:58;;;;;;;8.82;4.05;;;;;;;11.41;66.31;96312.63;2062871;28;20293;-64
2023/04/25 15:24:59;;;;;;;7.80;4.40;;;;;;;12.00;66.16;96317.31;2066950;28;20306;-65
2023/04/25 15:26:01;;;;;;;11.32;3.88;;;;;;;11.59;64.79;96309.03;2063780;28;20579;-64
2023/04/25 15:27:04;;;;;;;6.63;4.60;;;;;;;12.18;64.99;96311.06;2063205;28;20200;-64
2023/04/25 15:28:05;;;;;;;9.25;3.55;;;;;;;11.94;62.87;96313.25;2065656;28;20197;-64
2023/04/25 15:29:07;;;;;;;7.90;3.40;;;;;;;11.99;63.60;96313.88;2064216;28;20199;-65
2023/04/25 15:30:10;;;;;;;7.50;4.03;;;;;;;11.46;64.16;96313.22;2063345;28;20206;-64
2023/04/25 15:31:12;;;;;;;9.27;4.00;;;;;;;11.35;65.44;96311.19;2062871;28;20718;-65
2023/04/25 15:32:14;;;;;;;9.07;4.97;;;;;;;10.89;64.67;96317.03;2063538;28;20202;-64
2023/04/25 15:33:16;;;;;;;7.22;4.13;;;;;;;10.93;64.43;96315.97;2063145;28;20549;-64
2023/04/25 15:34:17;;;;;;;5.63;3.72;;;;;;;10.51;67.42;96326.78;2063937;28;20194;-65
2023/04/25 15:35:19;;;;;;;8.32;4.50;;;;;;;10.60;67.26;96326.31;2063394;28;20238;-65
2023/04/25 15:36:21;;;;;;;8.10;4.03;;;;;;;10.62;68.37;96320.09;2063762;28;20690;-65
2023/04/25 15:37:22;;;;;;;7.82;4.28;;;;;;;10.50;69.11;96322.47;2063717;28;20969;-64
2023/04/25 15:38:24;;;;;;;6.00;3.58;;;;;;;10.55;69.73;96320.50;2062675;28;20225;-65
2023/04/25 15:39:25;;;;;;;6.13;3.80;;;;;;;10.60;68.64;96326.31;2063557;28;20349;-64
2023/04/25 15:40:27;;;;;;;9.98;4.38;;;;;;;10.45;68.76;96326.19;2065374;28;20206;-64
2023/04/25 15:41:28;;;;;;;7.90;3.65;;;;;;;10.32;68.56;96319.00;2063274;28;20248;-64
2023/04/25 15:42:30;;;;;;;9.50;3.80;;;;;;;10.37;68.66;96330.91;2067692;28;20213;-64
2023/04/25 15:43:34;;;;;;;7.35;3.85;;;;;;;10.05;69.18;96329.84;2065452;28;20918;-65
2023/04/25 15:44:36;;;;;;;9.27;3.72;;;;;;;10.03;71.07;96331.66;2064020;28;20222;-64
2023/04/25 15:45:37;;;;;;;8.60;3.78;;;;;;;10.25;72.57;96334.09;2063591;28;20697;-64
2023/04/25 15:46:39;;;;;;;10.23;4.32;;;;;;;10.05;71.85;96335.06;2066312;28;20291;-64
2023/04/25 16:10:20;;;;;;;11.45;4.00;;;;;;;9.35;71.89;96338.22;2087014;28;20617;-63
2023/04/25 16:17:42;;;;;;;10.30;4.93;;;;;;;9.18;72.54;96331.19;2084519;28;20557;-62
